createdAt,value
2023-05-05T00:00:38.718Z,99650.50
2023-05-05T00:02:41.834Z,99654.63
2023-05-05T00:04:44.789Z,99657.19
2023-05-05T00:06:47.441Z,99653.28
2023-05-05T00:08:50.160Z,99650.97
2023-05-05T00:10:53.922Z,99657.75
2023-05-05T00:12:56.772Z,99645.75
2023-05-05T00:14:59.501Z,99645.06
2023-05-05T00:17:02.316Z,99635.88
2023-05-05T00:19:05.766Z,99629.38
2023-05-05T00:21:08.862Z,99632.25
2023-05-05T00:23:11.753Z,99633.00
2023-05-05T00:25:14.524Z,99641.06
2023-05-05T00:27:29.464Z,99630.00
2023-05-05T00:29:32.201Z,99638.53
2023-05-05T00:31:35.109Z,99636.44
2023-05-05T00:33:37.859Z,99639.00
2023-05-05T00:35:40.701Z,99628.84
2023-05-05T00:37:43.619Z,99636.56
2023-05-05T00:39:46.349Z,99635.75
2023-05-05T00:41:49.076Z,99649.16
2023-05-05T00:43:52.837Z,99644.00
2023-05-05T00:46:02.375Z,99643.66
2023-05-05T00:48:06.406Z,99640.91
2023-05-05T00:50:10.163Z,99638.16
2023-05-05T00:52:13.370Z,99634.13
2023-05-05T00:54:16.142Z,99646.53
2023-05-05T00:56:22.092Z,99641.69
2023-05-05T00:58:24.972Z,99638.72
2023-05-05T01:00:28.646Z,99635.00
2023-05-05T01:02:31.920Z,99637.25
2023-05-05T01:04:35.309Z,99636.75
2023-05-05T01:06:44.198Z,99630.75
2023-05-05T01:08:52.749Z,99632.69
2023-05-05T01:11:08.726Z,99627.00
2023-05-05T01:13:42.962Z,99625.41
2023-05-05T01:16:01.132Z,99629.25
2023-05-05T01:18:04.306Z,99630.16
2023-05-05T01:20:18.293Z,99630.78
2023-05-05T01:22:37.041Z,99628.97
2023-05-05T01:25:13.102Z,99636.69
2023-05-05T01:27:52.523Z,99625.72
2023-05-05T01:30:10.449Z,99630.13
2023-05-05T01:32:22.409Z,99624.31
2023-05-05T01:34:27.827Z,99631.59
2023-05-05T01:36:38.429Z,99630.00
2023-05-05T01:38:45.449Z,99634.84
2023-05-05T01:41:05.209Z,99638.91
2023-05-05T01:43:10.359Z,99642.94
2023-05-05T01:45:16.616Z,99645.59
2023-05-05T01:47:21.349Z,99638.69
2023-05-05T01:49:25.101Z,99627.22
2023-05-05T01:51:28.870Z,99635.50
2023-05-05T01:53:32.816Z,99633.25
2023-05-05T01:55:37.481Z,99630.69
2023-05-05T01:57:43.122Z,99635.25
2023-05-05T01:59:45.894Z,99633.81
2023-05-05T02:01:50.685Z,99629.00
2023-05-05T02:03:57.136Z,99626.16
2023-05-05T02:06:01.833Z,99626.34
2023-05-05T02:08:06.845Z,99630.38
2023-05-05T02:10:12.632Z,99620.41
2023-05-05T02:12:16.831Z,99616.72
2023-05-05T02:14:23.752Z,99618.53
2023-05-05T02:16:27.442Z,99612.41
2023-05-05T02:18:35.858Z,99612.28
2023-05-05T02:20:40.498Z,99620.38
2023-05-05T02:22:43.186Z,99623.00
2023-05-05T02:24:45.914Z,99630.28
2023-05-05T02:26:52.017Z,99621.91
2023-05-05T02:29:08.041Z,99620.31
2023-05-05T02:31:12.502Z,99614.38
2023-05-05T02:33:17.476Z,99612.28
2023-05-05T02:35:35.070Z,99620.59
2023-05-05T02:37:40.253Z,99611.09
2023-05-05T02:39:59.069Z,99610.63
2023-05-05T02:42:04.100Z,99609.19
2023-05-05T02:44:08.680Z,99612.28
2023-05-05T02:46:11.414Z,99606.63
2023-05-05T02:48:14.220Z,99616.19
2023-05-05T02:50:17.144Z,99611.66
2023-05-05T02:52:19.953Z,99613.13
2023-05-05T02:54:22.689Z,99608.59
2023-05-05T02:56:51.695Z,99607.34
2023-05-05T02:59:40.523Z,99608.63
2023-05-05T03:02:14.471Z,99605.03
2023-05-05T03:04:30.048Z,99607.16
2023-05-05T03:06:42.017Z,99598.94
2023-05-05T03:08:58.157Z,99598.44
2023-05-05T03:11:18.971Z,99597.16
2023-05-05T03:13:26.606Z,99596.66
2023-05-05T03:15:34.253Z,99593.75
2023-05-05T03:17:38.017Z,99580.97
2023-05-05T03:19:43.383Z,99575.94
2023-05-05T03:21:46.335Z,99580.94
2023-05-05T03:23:49.090Z,99579.66
2023-05-05T03:25:52.083Z,99579.50
2023-05-05T03:27:54.633Z,99578.19
2023-05-05T03:29:57.287Z,99583.84
2023-05-05T03:32:01.169Z,99581.25
2023-05-05T03:34:03.896Z,99582.53
2023-05-05T03:36:06.716Z,99586.25
2023-05-05T03:38:09.370Z,99570.53
2023-05-05T03:40:12.723Z,99573.09
2023-05-05T03:42:15.514Z,99574.56
2023-05-05T03:46:21.154Z,99572.75
2023-05-05T03:48:23.761Z,99571.41
2023-05-05T03:50:26.419Z,99568.94
2023-05-05T03:52:28.977Z,99562.44
2023-05-05T03:54:31.756Z,99567.78
2023-05-05T03:56:34.384Z,99575.19
2023-05-05T03:58:36.979Z,99577.75
2023-05-05T04:00:39.702Z,99576.44
2023-05-05T04:02:43.698Z,99577.84
2023-05-05T04:04:46.638Z,99575.03
2023-05-05T04:06:49.312Z,99578.88
2023-05-05T04:08:52.050Z,99570.56
2023-05-05T04:10:54.682Z,99563.03
2023-05-05T04:12:57.287Z,99567.34
2023-05-05T04:15:00.009Z,99563.72
2023-05-05T04:17:02.753Z,99569.03
2023-05-05T04:19:05.418Z,99562.16
2023-05-05T04:21:08.136Z,99569.56
2023-05-05T04:23:10.684Z,99566.59
2023-05-05T04:25:13.285Z,99565.28
2023-05-05T04:27:15.855Z,99564.72
2023-05-05T04:29:18.643Z,99557.38
2023-05-05T04:31:21.416Z,99566.38
2023-05-05T04:33:24.056Z,99549.25
2023-05-05T04:35:26.608Z,99546.41
2023-05-05T04:37:29.298Z,99549.75
2023-05-05T04:39:31.849Z,99540.75
2023-05-05T04:41:35.017Z,99542.75
2023-05-05T04:43:37.674Z,99536.31
2023-05-05T04:45:40.385Z,99530.69
2023-05-05T04:47:43.212Z,99533.56
2023-05-05T04:49:46.137Z,99537.94
2023-05-05T04:51:48.966Z,99532.84
2023-05-05T04:53:52.133Z,99544.59
2023-05-05T04:55:54.759Z,99536.09
2023-05-05T04:57:57.458Z,99540.34
2023-05-05T05:00:01.238Z,99538.16
2023-05-05T05:02:04.054Z,99534.81
2023-05-05T05:04:11.768Z,99539.44
2023-05-05T05:06:14.452Z,99540.00
2023-05-05T05:08:17.615Z,99538.03
2023-05-05T05:10:20.351Z,99538.50
2023-05-05T05:12:23.131Z,99540.22
2023-05-05T05:14:25.965Z,99543.53
2023-05-05T05:16:28.717Z,99535.72
2023-05-05T05:18:31.495Z,99544.34
2023-05-05T05:20:34.181Z,99545.22
2023-05-05T05:22:38.950Z,99539.00
2023-05-05T05:24:41.801Z,99535.06
2023-05-05T05:26:44.526Z,99535.66
2023-05-05T05:28:47.395Z,99526.31
2023-05-05T05:30:50.145Z,99524.88
2023-05-05T05:32:53.030Z,99535.81
2023-05-05T05:34:55.822Z,99537.25
2023-05-05T05:36:58.490Z,99519.59
2023-05-05T05:39:01.197Z,99517.81
2023-05-05T05:41:10.084Z,99526.75
2023-05-05T05:43:12.686Z,99521.78
2023-05-05T05:45:15.600Z,99523.56
2023-05-05T05:47:18.222Z,99515.38
2023-05-05T05:49:20.885Z,99514.50
2023-05-05T05:51:23.524Z,99513.97
2023-05-05T05:53:26.141Z,99509.50
2023-05-05T05:55:28.768Z,99504.94
2023-05-05T05:57:31.356Z,99493.91
2023-05-05T05:59:33.993Z,99502.94
2023-05-05T06:01:37.008Z,99503.75
2023-05-05T06:03:39.701Z,99503.00
2023-05-05T06:05:42.438Z,99497.03
2023-05-05T06:07:45.012Z,99498.81
2023-05-05T06:09:47.727Z,99509.31
2023-05-05T06:11:50.380Z,99496.06
2023-05-05T06:13:53.140Z,99492.34
2023-05-05T06:15:55.834Z,99495.38
2023-05-05T06:17:58.663Z,99502.34
2023-05-05T06:20:01.437Z,99502.13
2023-05-05T06:22:05.836Z,99498.31
2023-05-05T06:24:08.554Z,99493.28
2023-05-05T06:26:11.160Z,99489.81
2023-05-05T06:28:13.739Z,99491.50
2023-05-05T06:30:16.774Z,99495.59
2023-05-05T06:32:20.473Z,99490.63
2023-05-05T06:34:23.141Z,99500.28
2023-05-05T06:36:26.521Z,99492.44
2023-05-05T06:38:29.912Z,99487.75
2023-05-05T06:40:32.885Z,99486.25
2023-05-05T06:42:36.232Z,99491.13
2023-05-05T06:44:38.949Z,99484.97
2023-05-05T06:46:43.932Z,99486.72
2023-05-05T06:48:46.635Z,99487.19
2023-05-05T06:50:49.411Z,99485.41
2023-05-05T06:52:53.324Z,99479.28
2023-05-05T06:54:55.856Z,99478.69
2023-05-05T06:56:59.578Z,99472.53
2023-05-05T06:59:02.466Z,99479.19
2023-05-05T07:01:05.457Z,99473.03
2023-05-05T07:03:08.463Z,99472.44
2023-05-05T07:05:11.394Z,99468.66
2023-05-05T07:07:14.040Z,99468.47
2023-05-05T07:09:17.658Z,99465.78
2023-05-05T07:11:20.758Z,99457.50
2023-05-05T07:13:23.336Z,99455.59
2023-05-05T07:15:28.793Z,99450.22
2023-05-05T07:17:32.333Z,99456.72
2023-05-05T07:19:34.992Z,99452.78
2023-05-05T07:21:37.618Z,99447.25
2023-05-05T07:23:40.767Z,99445.75
2023-05-05T07:25:44.130Z,99448.22
2023-05-05T07:27:46.837Z,99440.31
2023-05-05T07:29:49.648Z,99437.59
2023-05-05T07:31:52.291Z,99437.97
2023-05-05T07:33:55.079Z,99435.69
2023-05-05T07:35:57.791Z,99433.72
2023-05-05T07:38:00.759Z,99432.16
2023-05-05T07:40:03.612Z,99429.38
2023-05-05T07:42:07.524Z,99427.81
2023-05-05T07:44:10.199Z,99427.81
2023-05-05T07:46:12.958Z,99425.09
2023-05-05T07:48:15.524Z,99413.53
2023-05-05T07:50:18.713Z,99409.56
2023-05-05T07:52:30.113Z,99402.00
2023-05-05T07:54:41.437Z,99413.97
2023-05-05T07:56:44.275Z,99403.22
2023-05-05T07:58:47.018Z,99405.59
2023-05-05T08:00:51.098Z,99400.78
2023-05-05T08:02:53.712Z,99399.19
2023-05-05T08:04:56.446Z,99395.19
2023-05-05T08:06:59.107Z,99399.19
2023-05-05T08:09:02.221Z,99392.78
2023-05-05T08:11:06.750Z,99399.94
2023-05-05T08:13:09.538Z,99390.75
2023-05-05T08:15:12.303Z,99387.97
2023-05-05T08:17:14.896Z,99390.34
2023-05-05T08:19:28.813Z,99389.91
2023-05-05T08:21:32.064Z,99381.13
2023-05-05T08:23:35.488Z,99379.53
2023-05-05T08:25:38.066Z,99371.94
2023-05-05T08:27:42.184Z,99368.69
2023-05-05T08:29:44.783Z,99372.28
2023-05-05T08:31:47.699Z,99369.47
2023-05-05T08:33:50.890Z,99373.91
2023-05-05T08:35:53.684Z,99371.13
2023-05-05T08:37:58.784Z,99365.13
2023-05-05T08:40:02.105Z,99370.34
2023-05-05T08:42:06.525Z,99370.66
2023-05-05T08:44:11.441Z,99363.38
2023-05-05T08:46:14.629Z,99370.47
2023-05-05T08:48:23.228Z,99368.47
2023-05-05T08:50:27.979Z,99358.41
2023-05-05T08:52:39.690Z,99352.81
2023-05-05T08:54:49.840Z,99344.75
2023-05-05T08:56:53.970Z,99349.94
2023-05-05T08:58:57.296Z,99340.41
2023-05-05T09:01:01.764Z,99338.81
2023-05-05T09:03:06.114Z,99342.75
2023-05-05T09:05:09.687Z,99344.72
2023-05-05T09:07:12.787Z,99336.34
2023-05-05T09:09:15.761Z,99334.31
2023-05-05T09:11:18.372Z,99334.66
2023-05-05T09:13:21.193Z,99325.00
2023-05-05T09:15:23.885Z,99320.91
2023-05-05T09:17:27.236Z,99315.50
2023-05-05T09:19:30.052Z,99321.34
2023-05-05T09:21:35.183Z,99311.31
2023-05-05T09:23:38.306Z,99301.28
2023-05-05T09:25:43.075Z,99307.31
2023-05-05T09:27:48.580Z,99303.22
2023-05-05T09:29:51.394Z,99296.09
2023-05-05T09:32:05.803Z,99288.78
2023-05-05T09:34:16.599Z,99293.47
2023-05-05T09:36:19.309Z,99295.06
2023-05-05T09:38:24.054Z,99299.84
2023-05-05T09:40:27.122Z,99292.13
2023-05-05T09:42:29.986Z,99286.59
2023-05-05T09:44:40.220Z,99286.28
2023-05-05T09:46:53.355Z,99283.91
2023-05-05T09:48:56.135Z,99279.06
2023-05-05T09:50:59.657Z,99284.56
2023-05-05T09:53:03.673Z,99279.03
2023-05-05T09:55:08.392Z,99274.13
2023-05-05T09:57:28.835Z,99269.38
2023-05-05T09:59:31.957Z,99269.00
2023-05-05T10:01:34.729Z,99272.56
2023-05-05T10:03:52.348Z,99282.94
2023-05-05T10:05:57.083Z,99269.25
2023-05-05T10:08:13.676Z,99261.50
2023-05-05T10:10:18.337Z,99266.41
2023-05-05T10:12:21.431Z,99256.88
2023-05-05T10:14:25.431Z,99265.03
2023-05-05T10:16:30.347Z,99256.81
2023-05-05T10:18:33.452Z,99257.63
2023-05-05T10:20:38.316Z,99254.56
2023-05-05T10:22:45.415Z,99246.28
2023-05-05T10:24:57.537Z,99250.41
2023-05-05T10:27:05.957Z,99239.47
2023-05-05T10:29:17.868Z,99242.81
2023-05-05T10:31:27.679Z,99239.69
2023-05-05T10:33:40.028Z,99238.09
2023-05-05T10:35:44.907Z,99225.97
2023-05-05T10:37:48.061Z,99224.75
2023-05-05T10:39:53.544Z,99210.63
2023-05-05T10:42:02.157Z,99216.47
2023-05-05T10:44:06.400Z,99211.06
2023-05-05T10:46:09.689Z,99216.75
2023-05-05T10:48:23.162Z,99219.84
2023-05-05T10:50:36.957Z,99215.13
2023-05-05T10:52:57.888Z,99211.44
2023-05-05T10:55:15.659Z,99204.06
2023-05-05T10:57:22.674Z,99205.72
2023-05-05T10:59:37.445Z,99200.88
2023-05-05T11:01:40.903Z,99202.97
2023-05-05T11:03:43.689Z,99195.44
2023-05-05T11:06:12.674Z,99187.88
2023-05-05T11:08:27.773Z,99178.53
2023-05-05T11:10:44.894Z,99177.97
2023-05-05T11:13:00.207Z,99173.47
2023-05-05T11:15:27.855Z,99169.91
2023-05-05T11:17:47.830Z,99169.44
2023-05-05T11:19:52.427Z,99160.47
2023-05-05T11:22:02.079Z,99159.41
2023-05-05T11:24:30.278Z,99164.53
2023-05-05T11:26:59.157Z,99167.66
2023-05-05T11:29:04.331Z,99180.84
2023-05-05T11:31:07.144Z,99182.13
2023-05-05T11:33:38.414Z,99202.84
2023-05-05T11:36:13.485Z,99211.47
2023-05-05T11:38:17.978Z,99202.56
2023-05-05T11:40:29.476Z,99183.06
2023-05-05T11:42:32.194Z,99175.13
2023-05-05T11:44:36.100Z,99164.31
2023-05-05T11:46:51.269Z,99157.78
2023-05-05T11:48:54.245Z,99157.63
2023-05-05T11:50:58.304Z,99154.66
2023-05-05T11:53:01.850Z,99155.69
2023-05-05T11:55:05.146Z,99168.38
2023-05-05T11:57:08.632Z,99178.31
2023-05-05T11:59:11.601Z,99190.38
2023-05-05T12:01:14.864Z,99186.88
2023-05-05T12:03:18.171Z,99187.75
2023-05-05T12:05:21.406Z,99183.56
2023-05-05T12:07:27.775Z,99174.28
2023-05-05T12:09:30.532Z,99168.06
2023-05-05T12:11:33.531Z,99166.19
2023-05-05T12:13:36.611Z,99180.69
2023-05-05T12:15:39.301Z,99191.13
2023-05-05T12:17:46.199Z,99173.97
2023-05-05T12:19:54.384Z,99181.97
2023-05-05T12:21:57.217Z,99196.38
2023-05-05T12:24:00.553Z,99178.03
2023-05-05T12:26:03.195Z,99179.66
2023-05-05T12:28:09.799Z,99151.72
2023-05-05T12:30:17.106Z,99134.53
2023-05-05T12:32:25.619Z,99146.50
2023-05-05T12:34:28.528Z,99144.09
2023-05-05T12:36:33.060Z,99141.66
2023-05-05T12:38:36.707Z,99144.84
2023-05-05T12:40:47.880Z,99142.06
2023-05-05T12:42:50.626Z,99144.78
2023-05-05T12:44:53.331Z,99141.16
2023-05-05T12:46:56.653Z,99136.38
2023-05-05T12:49:06.952Z,99127.97
2023-05-05T12:51:17.797Z,99107.97
2023-05-05T12:53:24.359Z,99111.56
2023-05-05T12:55:40.243Z,99113.13
2023-05-05T12:58:02.607Z,99106.31
2023-05-05T13:00:16.464Z,99107.50
2023-05-05T13:02:20.028Z,99094.28
2023-05-05T13:04:24.691Z,99091.44
2023-05-05T13:06:28.542Z,99084.56
2023-05-05T13:08:52.224Z,99089.78
2023-05-05T13:10:58.692Z,99079.81
2023-05-05T13:13:01.581Z,99078.50
2023-05-05T13:15:04.824Z,99080.13
2023-05-05T13:17:11.561Z,99088.94
2023-05-05T13:19:14.265Z,99091.31
2023-05-05T13:21:17.095Z,99093.63
2023-05-05T13:23:20.142Z,99099.66
2023-05-05T13:25:22.963Z,99104.88
2023-05-05T13:27:25.706Z,99093.75
2023-05-05T13:29:31.349Z,99089.84
2023-05-05T13:31:34.742Z,99089.94
2023-05-05T13:33:37.562Z,99088.00
2023-05-05T13:35:40.448Z,99102.03
2023-05-05T13:37:44.579Z,99098.88
2023-05-05T13:39:47.382Z,99088.13
2023-05-05T13:41:50.141Z,99083.38
2023-05-05T13:43:53.140Z,99082.16
2023-05-05T13:46:05.610Z,99092.97
2023-05-05T13:48:15.467Z,99082.22
2023-05-05T13:50:18.455Z,99079.09
2023-05-05T13:52:21.027Z,99076.72
2023-05-05T13:54:23.784Z,99073.13
2023-05-05T13:56:27.934Z,99069.16
2023-05-05T13:58:30.729Z,99068.00
2023-05-05T14:00:34.861Z,99073.16
2023-05-05T14:02:37.996Z,99074.78
2023-05-05T14:04:41.600Z,99077.56
2023-05-05T14:06:44.284Z,99081.53
2023-05-05T14:08:46.987Z,99083.16
2023-05-05T14:10:51.492Z,99085.94
2023-05-05T14:12:54.958Z,99089.13
2023-05-05T14:14:57.583Z,99089.94
2023-05-05T14:17:00.312Z,99084.75
2023-05-05T14:19:03.303Z,99104.66
2023-05-05T14:21:06.097Z,99101.06
2023-05-05T14:23:08.779Z,99101.81
2023-05-05T14:25:11.464Z,99110.97
2023-05-05T14:27:14.338Z,99111.34
2023-05-05T14:29:16.982Z,99113.31
2023-05-05T14:31:19.865Z,99114.03
2023-05-05T14:33:22.635Z,99109.66
2023-05-05T14:35:25.387Z,99116.03
2023-05-05T14:37:28.062Z,99101.66
2023-05-05T14:39:31.242Z,99108.44
2023-05-05T14:41:33.910Z,99109.59
2023-05-05T14:43:37.307Z,99108.44
2023-05-05T14:45:40.116Z,99111.94
2023-05-05T14:47:42.870Z,99105.13
2023-05-05T14:49:45.757Z,99095.56
2023-05-05T14:51:49.085Z,99096.72
2023-05-05T14:53:51.805Z,99096.25
2023-05-05T14:55:54.919Z,99094.56
2023-05-05T14:57:57.667Z,99085.00
2023-05-05T15:00:00.322Z,99088.56
2023-05-05T15:02:03.237Z,99086.53
2023-05-05T15:04:06.076Z,99090.84
2023-05-05T15:06:09.070Z,99089.19
2023-05-05T15:08:11.882Z,99080.00
2023-05-05T15:10:15.208Z,99086.72
2023-05-05T15:12:18.090Z,99077.16
2023-05-05T15:14:20.838Z,99084.25
2023-05-05T15:16:23.587Z,99086.19
2023-05-05T15:18:26.389Z,99083.34
2023-05-05T15:20:29.193Z,99090.84
2023-05-05T15:22:32.259Z,99090.44
2023-05-05T15:24:34.965Z,99102.75
2023-05-05T15:26:37.624Z,99103.47
2023-05-05T15:28:40.466Z,99102.94
2023-05-05T15:30:43.314Z,99110.78
2023-05-05T15:32:46.828Z,99100.34
2023-05-05T15:34:50.449Z,99107.06
2023-05-05T15:36:54.211Z,99120.47
2023-05-05T15:38:56.863Z,99129.34
2023-05-05T15:40:59.961Z,99155.44
2023-05-05T15:43:02.776Z,99154.94
2023-05-05T15:45:08.312Z,99158.53
2023-05-05T15:47:11.660Z,99145.13
2023-05-05T15:49:14.474Z,99160.97
2023-05-05T15:51:17.144Z,99182.38
2023-05-05T15:53:19.818Z,99195.84
2023-05-05T15:55:22.737Z,99184.31
2023-05-05T15:57:25.499Z,99190.78
2023-05-05T15:59:28.184Z,99195.63
2023-05-05T16:01:31.092Z,99197.72
2023-05-05T16:03:33.843Z,99195.69
2023-05-05T16:05:36.836Z,99190.56
2023-05-05T16:07:39.545Z,99199.28
2023-05-05T16:09:42.371Z,99205.19
2023-05-05T16:11:45.346Z,99201.25
2023-05-05T16:13:48.062Z,99191.44
2023-05-05T16:15:50.700Z,99195.63
2023-05-05T16:17:53.621Z,99188.19
2023-05-05T16:19:56.730Z,99182.50
2023-05-05T16:21:59.410Z,99179.28
2023-05-05T16:24:02.075Z,99172.94
2023-05-05T16:26:04.791Z,99172.31
2023-05-05T16:28:07.466Z,99180.06
2023-05-05T16:30:12.971Z,99181.22
2023-05-05T16:32:15.856Z,99187.19
2023-05-05T16:34:18.544Z,99182.13
2023-05-05T16:36:21.266Z,99187.84
2023-05-05T16:38:24.060Z,99198.16
2023-05-05T16:40:26.856Z,99190.34
2023-05-05T16:42:29.582Z,99186.41
2023-05-05T16:44:32.335Z,99182.94
2023-05-05T16:46:40.227Z,99167.94
2023-05-05T16:48:43.002Z,99163.06
2023-05-05T16:50:45.864Z,99175.03
2023-05-05T16:52:48.675Z,99158.06
2023-05-05T16:54:55.761Z,99152.47
2023-05-05T16:56:58.569Z,99159.88
2023-05-05T16:59:01.266Z,99143.78
2023-05-05T17:01:04.301Z,99124.00
2023-05-05T17:03:07.024Z,99123.19
2023-05-05T17:05:10.210Z,99129.53
2023-05-05T17:07:13.117Z,99135.06
2023-05-05T17:09:16.019Z,99126.75
2023-05-05T17:11:18.677Z,99142.09
2023-05-05T17:13:23.178Z,99123.38
2023-05-05T17:15:25.986Z,99110.44
2023-05-05T17:17:28.768Z,99108.91
2023-05-05T17:19:32.119Z,99124.06
2023-05-05T17:21:35.065Z,99147.22
2023-05-05T17:23:37.834Z,99146.31
2023-05-05T17:25:40.514Z,99151.03
2023-05-05T17:27:43.186Z,99153.91
2023-05-05T17:29:45.996Z,99147.91
2023-05-05T17:31:51.929Z,99155.50
2023-05-05T17:33:54.619Z,99140.63
2023-05-05T17:35:58.734Z,99143.38
2023-05-05T17:38:01.402Z,99128.06
2023-05-05T17:40:05.008Z,99102.41
2023-05-05T17:42:08.123Z,99089.66
2023-05-05T17:44:10.872Z,99087.50
2023-05-05T17:46:13.657Z,99097.56
2023-05-05T17:48:16.447Z,99112.44
2023-05-05T17:50:19.336Z,99127.75
2023-05-05T17:52:22.800Z,99128.53
2023-05-05T17:54:25.496Z,99122.94
2023-05-05T17:56:28.211Z,99122.03
2023-05-05T17:58:31.057Z,99118.72
2023-05-05T18:00:33.693Z,99121.50
2023-05-05T18:02:39.892Z,99106.88
2023-05-05T18:04:42.793Z,99103.66
2023-05-05T18:06:45.456Z,99086.81
2023-05-05T18:08:48.415Z,99084.38
2023-05-05T18:10:51.163Z,99085.56
2023-05-05T18:12:53.939Z,99083.25
2023-05-05T18:14:56.987Z,99079.44
2023-05-05T18:16:59.635Z,99080.69
2023-05-05T18:19:02.348Z,99086.75
2023-05-05T18:21:04.957Z,99089.16
2023-05-05T18:23:07.702Z,99091.56
2023-05-05T18:25:10.767Z,99092.84
2023-05-05T18:27:13.631Z,99096.00
2023-05-05T18:29:21.633Z,99101.66
2023-05-05T18:31:24.490Z,99105.22
2023-05-05T18:33:27.201Z,99114.75
2023-05-05T18:35:29.933Z,99104.16
2023-05-05T18:37:32.580Z,99117.63
2023-05-05T18:39:35.398Z,99126.59
2023-05-05T18:41:38.241Z,99121.97
2023-05-05T18:43:41.298Z,99124.84
2023-05-05T18:45:44.029Z,99122.16
2023-05-05T18:47:46.865Z,99118.59
2023-05-05T18:49:49.985Z,99109.97
2023-05-05T18:51:53.836Z,99108.81
2023-05-05T18:53:56.733Z,99094.28
2023-05-05T18:55:59.585Z,99081.91
2023-05-05T18:58:02.311Z,99099.28
2023-05-05T19:00:05.684Z,99101.03
2023-05-05T19:02:09.773Z,99085.09
2023-05-05T19:04:26.751Z,99077.66
2023-05-05T19:06:33.249Z,99081.63
2023-05-05T19:08:36.081Z,99074.06
2023-05-05T19:10:38.774Z,99083.84
2023-05-05T19:12:41.718Z,99092.13
2023-05-05T19:14:44.342Z,99097.66
2023-05-05T19:16:47.263Z,99100.88
2023-05-05T19:18:50.051Z,99100.75
2023-05-05T19:20:52.901Z,99100.28
2023-05-05T19:22:57.754Z,99100.53
2023-05-05T19:25:03.909Z,99099.06
2023-05-05T19:27:08.328Z,99096.19
2023-05-05T19:29:11.218Z,99107.91
2023-05-05T19:31:13.943Z,99099.66
2023-05-05T19:33:16.666Z,99112.72
2023-05-05T19:35:19.328Z,99104.13
2023-05-05T19:37:22.715Z,99111.59
2023-05-05T19:39:25.512Z,99116.78
2023-05-05T19:41:29.105Z,99121.59
2023-05-05T19:43:31.846Z,99131.59
2023-05-05T19:45:35.730Z,99129.53
2023-05-05T19:47:38.487Z,99118.63
2023-05-05T19:49:41.813Z,99112.19
2023-05-05T19:51:47.650Z,99108.06
2023-05-05T19:53:50.916Z,99108.41
2023-05-05T19:55:53.700Z,99113.47
2023-05-05T19:57:56.335Z,99106.69
2023-05-05T19:59:59.012Z,99108.19
2023-05-05T20:02:01.846Z,99105.78
2023-05-05T20:04:04.638Z,99095.91
2023-05-05T20:06:07.303Z,99090.66
2023-05-05T20:08:10.079Z,99071.56
2023-05-05T20:10:16.804Z,99072.25
2023-05-05T20:12:22.017Z,99059.44
2023-05-05T20:14:25.356Z,99072.06
2023-05-05T20:16:28.203Z,99073.88
2023-05-05T20:18:31.289Z,99071.13
2023-05-05T20:20:34.056Z,99064.13
2023-05-05T20:22:38.641Z,99076.31
2023-05-05T20:24:41.500Z,99085.84
2023-05-05T20:26:44.381Z,99087.56
2023-05-05T20:28:47.158Z,99088.00
2023-05-05T20:30:49.818Z,99088.59
2023-05-05T20:32:53.762Z,99092.50
2023-05-05T20:34:56.910Z,99098.25
2023-05-05T20:36:59.599Z,99092.03
2023-05-05T20:39:02.397Z,99094.06
2023-05-05T20:41:05.287Z,99086.59
2023-05-05T20:43:07.934Z,99074.69
2023-05-05T20:45:11.520Z,99087.56
2023-05-05T20:47:14.172Z,99097.78
2023-05-05T20:49:16.793Z,99089.59
2023-05-05T20:51:19.504Z,99087.44
2023-05-05T20:53:24.482Z,99098.09
2023-05-05T20:55:27.578Z,99093.84
2023-05-05T20:57:30.367Z,99092.34
2023-05-05T20:59:33.063Z,99073.50
2023-05-05T21:01:36.066Z,99068.88
2023-05-05T21:03:38.820Z,99066.03
2023-05-05T21:05:42.129Z,99057.56
2023-05-05T21:07:45.066Z,99052.25
2023-05-05T21:09:48.019Z,99049.28
2023-05-05T21:11:50.670Z,99044.38
2023-05-05T21:13:53.414Z,99040.34
2023-05-05T21:15:56.221Z,99034.63
2023-05-05T21:17:59.015Z,99038.88
2023-05-05T21:20:01.989Z,99039.69
2023-05-05T21:22:08.032Z,99042.34
2023-05-05T21:24:10.806Z,99040.72
2023-05-05T21:26:13.582Z,99043.72
2023-05-05T21:28:16.378Z,99052.91
2023-05-05T21:30:19.025Z,99057.84
2023-05-05T21:32:21.735Z,99058.19
2023-05-05T21:34:24.452Z,99054.75
2023-05-05T21:36:27.526Z,99042.91
2023-05-05T21:38:30.179Z,99055.88
2023-05-05T21:40:32.920Z,99053.03
2023-05-05T21:42:35.678Z,99061.16
2023-05-05T21:44:38.354Z,99043.94
2023-05-05T21:46:41.261Z,99038.88
2023-05-05T21:48:46.422Z,99035.50
2023-05-05T21:50:49.111Z,99031.63
2023-05-05T21:52:51.923Z,99036.88
2023-05-05T21:54:54.580Z,99045.69
2023-05-05T21:56:57.285Z,99035.69
2023-05-05T21:59:00.233Z,99032.44
2023-05-05T22:01:02.976Z,99031.97
2023-05-05T22:03:05.980Z,99024.59
2023-05-05T22:05:09.643Z,99047.53
2023-05-05T22:07:12.616Z,99052.34
2023-05-05T22:09:15.329Z,99044.09
2023-05-05T22:11:19.102Z,99037.91
2023-05-05T22:13:21.988Z,99032.25
2023-05-05T22:15:30.001Z,99032.13
2023-05-05T22:17:36.498Z,99034.44
2023-05-05T22:19:39.348Z,99036.72
2023-05-05T22:21:42.481Z,99032.22
2023-05-05T22:23:46.338Z,99028.53
2023-05-05T22:25:49.061Z,99023.56
2023-05-05T22:27:51.926Z,99025.72
2023-05-05T22:29:54.796Z,99018.97
2023-05-05T22:31:57.526Z,99021.56
2023-05-05T22:34:00.328Z,99028.53
2023-05-05T22:36:03.156Z,99041.34
2023-05-05T22:38:06.678Z,99047.81
2023-05-05T22:40:10.231Z,99028.47
2023-05-05T22:42:13.113Z,99018.59
2023-05-05T22:44:15.926Z,99024.78
2023-05-05T22:46:18.615Z,99033.50
2023-05-05T22:48:21.832Z,99038.03
2023-05-05T22:50:24.625Z,99041.00
2023-05-05T22:52:29.141Z,99050.38
2023-05-05T22:54:31.865Z,99030.69
2023-05-05T22:56:34.685Z,99021.38
2023-05-05T22:58:37.446Z,99017.31
2023-05-05T23:00:40.845Z,99018.00
2023-05-05T23:02:43.690Z,99012.19
2023-05-05T23:04:46.503Z,99006.53
2023-05-05T23:06:49.392Z,99004.47
2023-05-05T23:08:52.223Z,98992.88
2023-05-05T23:10:55.050Z,98991.56
2023-05-05T23:12:57.951Z,98997.72
2023-05-05T23:15:00.680Z,99002.72
2023-05-05T23:17:03.637Z,99000.97
2023-05-05T23:19:06.482Z,99004.88
2023-05-05T23:21:10.668Z,99004.53
2023-05-05T23:23:13.325Z,98999.38
2023-05-05T23:25:16.164Z,98990.47
2023-05-05T23:27:18.989Z,98970.13
2023-05-05T23:29:21.772Z,98968.00
2023-05-05T23:31:25.001Z,98944.38
2023-05-05T23:33:27.793Z,98943.38
2023-05-05T23:35:30.570Z,98949.00
2023-05-05T23:37:33.365Z,98963.22
2023-05-05T23:39:36.141Z,98982.44
2023-05-05T23:41:39.036Z,98989.84
2023-05-05T23:43:41.882Z,98994.91
2023-05-05T23:45:44.511Z,98984.25
2023-05-05T23:47:47.256Z,98984.09
2023-05-05T23:49:50.072Z,98978.28
2023-05-05T23:51:53.061Z,98975.69
2023-05-05T23:53:57.563Z,98975.72
2023-05-05T23:56:00.369Z,98984.09
2023-05-05T23:58:03.084Z,98987.66
